sensor_id;sensor_type;location;lat;lon;timestamp;pressure;altitude;pressure_sealevel;temperature;humidity
60433;BME280;46286;48.098;11.590;2022-12-24T00:00:07;94920.41;;;8.71;100.00
60433;BME280;46286;48.098;11.590;2022-12-24T00:02:33;94920.16;;;8.67;100.00
60433;BME280;46286;48.098;11.590;2022-12-24T00:04:58;94938.25;;;8.69;100.00
60433;BME280;46286;48.098;11.590;2022-12-24T00:07:24;94920.81;;;8.89;100.00
60433;BME280;46286;48.098;11.590;2022-12-24T00:09:49;94922.81;;;9.07;100.00
60433;BME280;46286;48.098;11.590;2022-12-24T00:12:15;94927.03;;;9.03;100.00
60433;BME280;46286;48.098;11.590;2022-12-24T00:14:40;94935.47;;;8.95;100.00
60433;BME280;46286;48.098;11.590;2022-12-24T00:17:06;94936.44;;;9.09;100.00
60433;BME280;46286;48.098;11.590;2022-12-24T00:19:31;94942.28;;;8.96;100.00
60433;BME280;46286;48.098;11.590;2022-12-24T00:21:57;94944.50;;;8.83;100.00
60433;BME280;46286;48.098;11.590;2022-12-24T00:24:22;94956.00;;;8.88;100.00
60433;BME280;46286;48.098;11.590;2022-12-24T00:26:48;94950.22;;;8.91;100.00
60433;BME280;46286;48.098;11.590;2022-12-24T00:29:14;94947.63;;;8.86;100.00
60433;BME280;46286;48.098;11.590;2022-12-24T00:31:43;94963.97;;;8.72;100.00
60433;BME280;46286;48.098;11.590;2022-12-24T00:34:12;94961.28;;;8.77;100.00
60433;BME280;46286;48.098;11.590;2022-12-24T00:36:37;94961.50;;;8.91;100.00
60433;BME280;46286;48.098;11.590;2022-12-24T00:39:03;94948.72;;;8.79;100.00
60433;BME280;46286;48.098;11.590;2022-12-24T00:41:28;94953.41;;;8.82;100.00
60433;BME280;46286;48.098;11.590;2022-12-24T00:44:03;94971.50;;;8.84;100.00
60433;BME280;46286;48.098;11.590;2022-12-24T00:46:32;94984.41;;;8.75;100.00
60433;BME280;46286;48.098;11.590;2022-12-24T00:48:58;94981.56;;;8.61;100.00
60433;BME280;46286;48.098;11.590;2022-12-24T00:51:24;94985.47;;;8.69;100.00
60433;BME280;46286;48.098;11.590;2022-12-24T00:53:50;94999.22;;;8.45;100.00
60433;BME280;46286;48.098;11.590;2022-12-24T00:56:16;94989.16;;;8.68;100.00
60433;BME280;46286;48.098;11.590;2022-12-24T00:58:42;94989.09;;;8.78;100.00
60433;BME280;46286;48.098;11.590;2022-12-24T01:01:08;95000.56;;;8.93;100.00
60433;BME280;46286;48.098;11.590;2022-12-24T01:03:34;95009.00;;;8.84;100.00
60433;BME280;46286;48.098;11.590;2022-12-24T01:06:05;95007.19;;;8.80;100.00
60433;BME280;46286;48.098;11.590;2022-12-24T01:08:32;95004.06;;;8.78;100.00
60433;BME280;46286;48.098;11.590;2022-12-24T01:10:58;95016.38;;;8.82;100.00
60433;BME280;46286;48.098;11.590;2022-12-24T01:13:24;95032.63;;;8.90;100.00
60433;BME280;46286;48.098;11.590;2022-12-24T01:15:50;95031.09;;;8.73;100.00
60433;BME280;46286;48.098;11.590;2022-12-24T01:18:16;95031.94;;;8.58;100.00
60433;BME280;46286;48.098;11.590;2022-12-24T01:20:42;95030.81;;;8.75;100.00
60433;BME280;46286;48.098;11.590;2022-12-24T01:23:07;95022.69;;;8.76;100.00
60433;BME280;46286;48.098;11.590;2022-12-24T01:25:33;95026.38;;;8.75;100.00
60433;BME280;46286;48.098;11.590;2022-12-24T01:27:59;95025.34;;;8.71;100.00
60433;BME280;46286;48.098;11.590;2022-12-24T01:30:24;95022.22;;;8.59;100.00
60433;BME280;46286;48.098;11.590;2022-12-24T01:32:50;95036.88;;;8.75;100.00
60433;BME280;46286;48.098;11.590;2022-12-24T01:35:15;95043.22;;;8.59;100.00
60433;BME280;46286;48.098;11.590;2022-12-24T01:37:41;95045.06;;;8.58;100.00
60433;BME280;46286;48.098;11.590;2022-12-24T01:40:12;95045.34;;;8.57;100.00
60433;BME280;46286;48.098;11.590;2022-12-24T01:42:58;95052.91;;;8.69;100.00
60433;BME280;46286;48.098;11.590;2022-12-24T01:50:49;95068.41;;;8.55;100.00
60433;BME280;46286;48.098;11.590;2022-12-24T01:53:17;95079.19;;;8.48;100.00
60433;BME280;46286;48.098;11.590;2022-12-24T01:55:44;95078.38;;;8.58;100.00
60433;BME280;46286;48.098;11.590;2022-12-24T01:58:12;95071.00;;;8.70;100.00
60433;BME280;46286;48.098;11.590;2022-12-24T02:00:39;95080.94;;;8.73;100.00
60433;BME280;46286;48.098;11.590;2022-12-24T02:03:04;95073.56;;;8.86;100.00
60433;BME280;46286;48.098;11.590;2022-12-24T02:05:35;95079.56;;;8.91;100.00
60433;BME280;46286;48.098;11.590;2022-12-24T02:08:03;95082.19;;;8.91;100.00
60433;BME280;46286;48.098;11.590;2022-12-24T02:10:29;95081.66;;;8.94;100.00
60433;BME280;46286;48.098;11.590;2022-12-24T02:12:55;95076.69;;;8.88;100.00
60433;BME280;46286;48.098;11.590;2022-12-24T02:15:22;95084.13;;;8.65;100.00
60433;BME280;46286;48.098;11.590;2022-12-24T02:18:00;95086.41;;;8.82;100.00
60433;BME280;46286;48.098;11.590;2022-12-24T02:21:09;95087.69;;;8.95;100.00
60433;BME280;46286;48.098;11.590;2022-12-24T02:29:59;95090.38;;;8.79;100.00
60433;BME280;46286;48.098;11.590;2022-12-24T02:35:15;95100.03;;;8.89;100.00
60433;BME280;46286;48.098;11.590;2022-12-24T02:37:48;95092.47;;;8.77;100.00
60433;BME280;46286;48.098;11.590;2022-12-24T02:40:21;95098.75;;;8.81;100.00
60433;BME280;46286;48.098;11.590;2022-12-24T02:42:52;95115.00;;;8.89;100.00
60433;BME280;46286;48.098;11.590;2022-12-24T02:45:28;95112.38;;;8.94;100.00
60433;BME280;46286;48.098;11.590;2022-12-24T02:47:55;95120.78;;;8.91;100.00
60433;BME280;46286;48.098;11.590;2022-12-24T02:50:21;95114.50;;;8.81;100.00
60433;BME280;46286;48.098;11.590;2022-12-24T02:52:48;95120.75;;;8.96;100.00
60433;BME280;46286;48.098;11.590;2022-12-24T02:55:20;95131.75;;;9.03;100.00
60433;BME280;46286;48.098;11.590;2022-12-24T02:58:08;95144.41;;;8.91;100.00
60433;BME280;46286;48.098;11.590;2022-12-24T03:03:45;95136.03;;;8.83;100.00
60433;BME280;46286;48.098;11.590;2022-12-24T03:06:23;95135.75;;;8.75;100.00
60433;BME280;46286;48.098;11.590;2022-12-24T03:08:59;95141.53;;;8.87;100.00
60433;BME280;46286;48.098;11.590;2022-12-24T03:11:26;95139.16;;;8.91;100.00
60433;BME280;46286;48.098;11.590;2022-12-24T03:13:53;95136.50;;;9.01;100.00
60433;BME280;46286;48.098;11.590;2022-12-24T03:16:24;95140.44;;;8.98;100.00
60433;BME280;46286;48.098;11.590;2022-12-24T03:18:52;95145.97;;;8.92;100.00
60433;BME280;46286;48.098;11.590;2022-12-24T03:21:28;95155.41;;;8.88;100.00
60433;BME280;46286;48.098;11.590;2022-12-24T03:23:56;95144.41;;;8.91;100.00
60433;BME280;46286;48.098;11.590;2022-12-24T03:26:23;95151.75;;;8.89;100.00
60433;BME280;46286;48.098;11.590;2022-12-24T03:28:50;95147.59;;;8.72;100.00
60433;BME280;46286;48.098;11.590;2022-12-24T03:31:15;95123.97;;;8.77;100.00
60433;BME280;46286;48.098;11.590;2022-12-24T03:33:43;95138.09;;;8.97;100.00
60433;BME280;46286;48.098;11.590;2022-12-24T03:36:09;95139.66;;;8.88;100.00
60433;BME280;46286;48.098;11.590;2022-12-24T03:38:35;95160.66;;;8.88;100.00
60433;BME280;46286;48.098;11.590;2022-12-24T03:41:01;95158.84;;;8.83;100.00
60433;BME280;46286;48.098;11.590;2022-12-24T03:43:26;95167.53;;;8.83;100.00
60433;BME280;46286;48.098;11.590;2022-12-24T03:45:52;95174.59;;;8.88;100.00
60433;BME280;46286;48.098;11.590;2022-12-24T03:48:18;95173.81;;;8.82;100.00
60433;BME280;46286;48.098;11.590;2022-12-24T03:50:43;95170.66;;;8.80;100.00
60433;BME280;46286;48.098;11.590;2022-12-24T03:53:09;95174.34;;;8.79;100.00
60433;BME280;46286;48.098;11.590;2022-12-24T03:55:34;95159.13;;;8.66;100.00
60433;BME280;46286;48.098;11.590;2022-12-24T03:58:00;95154.91;;;8.80;100.00
60433;BME280;46286;48.098;11.590;2022-12-24T04:00:25;95153.34;;;8.79;100.00
60433;BME280;46286;48.098;11.590;2022-12-24T04:02:52;95175.91;;;8.91;100.00
60433;BME280;46286;48.098;11.590;2022-12-24T04:05:19;95180.63;;;8.83;100.00
60433;BME280;46286;48.098;11.590;2022-12-24T04:07:44;95181.16;;;8.91;100.00
60433;BME280;46286;48.098;11.590;2022-12-24T04:10:11;95187.97;;;8.81;100.00
60433;BME280;46286;48.098;11.590;2022-12-24T04:12:37;95183.25;;;8.83;100.00
60433;BME280;46286;48.098;11.590;2022-12-24T04:15:04;95189.53;;;8.88;100.00
60433;BME280;46286;48.098;11.590;2022-12-24T04:17:30;95192.69;;;8.90;100.00
60433;BME280;46286;48.098;11.590;2022-12-24T04:19:55;95196.91;;;8.75;100.00
60433;BME280;46286;48.098;11.590;2022-12-24T04:22:21;95212.63;;;8.80;100.00
60433;BME280;46286;48.098;11.590;2022-12-24T04:24:46;95202.13;;;8.91;100.00
60433;BME280;46286;48.098;11.590;2022-12-24T04:27:13;95202.13;;;8.96;100.00
60433;BME280;46286;48.098;11.590;2022-12-24T04:29:38;95209.97;;;8.96;100.00
60433;BME280;46286;48.098;11.590;2022-12-24T04:32:04;95207.91;;;8.88;100.00
60433;BME280;46286;48.098;11.590;2022-12-24T04:34:30;95219.97;;;8.89;100.00
60433;BME280;46286;48.098;11.590;2022-12-24T04:36:55;95227.88;;;8.83;100.00
60433;BME280;46286;48.098;11.590;2022-12-24T04:39:21;95228.91;;;8.77;100.00
60433;BME280;46286;48.098;11.590;2022-12-24T04:41:46;95218.94;;;8.84;100.00
60433;BME280;46286;48.098;11.590;2022-12-24T04:44:12;95220.53;;;8.75;100.00
60433;BME280;46286;48.098;11.590;2022-12-24T04:46:37;95214.22;;;8.81;100.00
60433;BME280;46286;48.098;11.590;2022-12-24T04:49:04;95217.88;;;8.91;100.00
60433;BME280;46286;48.098;11.590;2022-12-24T04:51:29;95235.19;;;8.81;100.00
60433;BME280;46286;48.098;11.590;2022-12-24T04:53:55;95235.72;;;8.89;100.00
60433;BME280;46286;48.098;11.590;2022-12-24T04:56:23;95241.50;;;8.86;100.00
60433;BME280;46286;48.098;11.590;2022-12-24T04:58:50;95241.78;;;8.69;100.00
60433;BME280;46286;48.098;11.590;2022-12-24T05:01:19;95245.69;;;8.81;100.00
60433;BME280;46286;48.098;11.590;2022-12-24T05:03:45;95241.53;;;8.65;100.00
60433;BME280;46286;48.098;11.590;2022-12-24T05:06:13;95246.25;;;8.58;100.00
60433;BME280;46286;48.098;11.590;2022-12-24T05:08:39;95242.03;;;8.62;100.00
60433;BME280;46286;48.098;11.590;2022-12-24T05:11:05;95241.53;;;8.65;100.00
60433;BME280;46286;48.098;11.590;2022-12-24T05:13:31;95241.00;;;8.58;100.00
60433;BME280;46286;48.098;11.590;2022-12-24T05:15:57;95242.53;;;8.69;100.00
60433;BME280;46286;48.098;11.590;2022-12-24T05:18:23;95239.94;;;8.74;100.00
60433;BME280;46286;48.098;11.590;2022-12-24T05:20:49;95250.19;;;8.71;100.00
60433;BME280;46286;48.098;11.590;2022-12-24T05:23:19;95251.50;;;8.83;100.00
60433;BME280;46286;48.098;11.590;2022-12-24T05:26:12;95253.56;;;8.76;100.00
60433;BME280;46286;48.098;11.590;2022-12-24T05:28:53;95260.38;;;8.77;100.00
60433;BME280;46286;48.098;11.590;2022-12-24T05:31:21;95262.50;;;8.65;100.00
60433;BME280;46286;48.098;11.590;2022-12-24T05:33:47;95259.88;;;8.60;100.00
60433;BME280;46286;48.098;11.590;2022-12-24T05:36:14;95259.38;;;8.58;100.00
60433;BME280;46286;48.098;11.590;2022-12-24T05:38:39;95255.16;;;8.57;100.00
60433;BME280;46286;48.098;11.590;2022-12-24T05:41:06;95254.09;;;8.53;100.00
60433;BME280;46286;48.098;11.590;2022-12-24T05:43:31;95255.66;;;8.43;100.00
60433;BME280;46286;48.098;11.590;2022-12-24T05:45:58;95268.00;;;8.58;100.00
60433;BME280;46286;48.098;11.590;2022-12-24T05:48:24;95270.91;;;8.57;100.00
60433;BME280;46286;48.098;11.590;2022-12-24T05:50:50;95277.72;;;8.58;100.00
60433;BME280;46286;48.098;11.590;2022-12-24T05:53:15;95278.75;;;8.62;100.00
60433;BME280;46286;48.098;11.590;2022-12-24T05:55:41;95278.50;;;8.69;100.00
60433;BME280;46286;48.098;11.590;2022-12-24T05:58:06;95287.69;;;8.66;100.00
60433;BME280;46286;48.098;11.590;2022-12-24T06:00:32;95279.81;;;8.66;100.00
60433;BME280;46286;48.098;11.590;2022-12-24T06:02:57;95269.31;;;8.66;100.00
60433;BME280;46286;48.098;11.590;2022-12-24T06:05:23;95281.13;;;8.74;100.00
60433;BME280;46286;48.098;11.590;2022-12-24T06:07:48;95285.06;;;8.71;100.00
60433;BME280;46286;48.098;11.590;2022-12-24T06:10:14;95292.91;;;8.66;100.00
60433;BME280;46286;48.098;11.590;2022-12-24T06:12:40;95309.44;;;8.61;100.00
60433;BME280;46286;48.098;11.590;2022-12-24T06:15:06;95301.84;;;8.60;100.00
60433;BME280;46286;48.098;11.590;2022-12-24T06:17:31;95315.47;;;8.52;100.00
60433;BME280;46286;48.098;11.590;2022-12-24T06:19:57;95317.06;;;8.58;100.00
60433;BME280;46286;48.098;11.590;2022-12-24T06:22:23;95313.38;;;8.54;100.00
60433;BME280;46286;48.098;11.590;2022-12-24T06:24:49;95325.47;;;8.65;100.00
60433;BME280;46286;48.098;11.590;2022-12-24T06:27:14;95315.75;;;8.55;100.00
60433;BME280;46286;48.098;11.590;2022-12-24T06:29:40;95306.28;;;8.49;100.00
60433;BME280;46286;48.098;11.590;2022-12-24T06:32:05;95306.56;;;8.53;100.00
60433;BME280;46286;48.098;11.590;2022-12-24T06:34:31;95308.66;;;8.51;100.00
60433;BME280;46286;48.098;11.590;2022-12-24T06:36:56;95309.69;;;8.44;100.00
60433;BME280;46286;48.098;11.590;2022-12-24T06:39:22;95311.28;;;8.45;100.00
60433;BME280;46286;48.098;11.590;2022-12-24T06:41:47;95315.47;;;8.52;100.00
60433;BME280;46286;48.098;11.590;2022-12-24T06:44:13;95328.03;;;8.39;100.00
60433;BME280;46286;48.098;11.590;2022-12-24T06:46:38;95331.94;;;8.42;100.00
60433;BME280;46286;48.098;11.590;2022-12-24T06:49:05;95328.53;;;8.36;100.00
60433;BME280;46286;48.098;11.590;2022-12-24T06:51:30;95336.38;;;8.31;100.00
60433;BME280;46286;48.098;11.590;2022-12-24T06:53:56;95329.03;;;8.33;100.00
60433;BME280;46286;48.098;11.590;2022-12-24T06:56:21;95337.44;;;8.35;100.00
60433;BME280;46286;48.098;11.590;2022-12-24T06:58:47;95343.66;;;8.08;100.00
60433;BME280;46286;48.098;11.590;2022-12-24T07:01:15;95350.19;;;8.06;100.00
60433;BME280;46286;48.098;11.590;2022-12-24T07:03:42;95358.66;;;8.23;100.00
60433;BME280;46286;48.098;11.590;2022-12-24T07:06:17;95357.88;;;8.28;100.00
60433;BME280;46286;48.098;11.590;2022-12-24T07:08:43;95344.75;;;8.23;100.00
60433;BME280;46286;48.098;11.590;2022-12-24T07:11:09;95338.69;;;8.12;100.00
60433;BME280;46286;48.098;11.590;2022-12-24T07:13:34;95352.06;;;8.10;100.00
60433;BME280;46286;48.098;11.590;2022-12-24T07:16:01;95350.44;;;7.99;100.00
60433;BME280;46286;48.098;11.590;2022-12-24T07:18:28;95353.03;;;7.94;100.00
60433;BME280;46286;48.098;11.590;2022-12-24T07:20:53;95358.78;;;7.91;100.00
60433;BME280;46286;48.098;11.590;2022-12-24T07:23:19;95353.88;;;8.05;100.00
60433;BME280;46286;48.098;11.590;2022-12-24T07:25:45;95364.06;;;8.01;100.00
60433;BME280;46286;48.098;11.590;2022-12-24T07:28:10;95363.00;;;7.92;100.00
60433;BME280;46286;48.098;11.590;2022-12-24T07:30:36;95364.59;;;7.98;100.00
60433;BME280;46286;48.098;11.590;2022-12-24T07:33:01;95375.59;;;7.95;100.00
60433;BME280;46286;48.098;11.590;2022-12-24T07:35:27;95375.53;;;7.85;100.00
60433;BME280;46286;48.098;11.590;2022-12-24T07:37:53;95368.19;;;7.87;100.00
60433;BME280;46286;48.098;11.590;2022-12-24T07:40:18;95366.41;;;7.92;100.00
60433;BME280;46286;48.098;11.590;2022-12-24T07:42:44;95377.16;;;7.96;100.00
60433;BME280;46286;48.098;11.590;2022-12-24T07:45:09;95381.34;;;7.92;100.00
60433;BME280;46286;48.098;11.590;2022-12-24T07:47:35;95388.97;;;8.04;100.00
60433;BME280;46286;48.098;11.590;2022-12-24T07:50:02;95397.06;;;7.92;100.00
60433;BME280;46286;48.098;11.590;2022-12-24T07:52:28;95404.88;;;7.87;100.00
60433;BME280;46286;48.098;11.590;2022-12-24T07:54:53;95398.63;;;7.93;100.00
60433;BME280;46286;48.098;11.590;2022-12-24T07:57:19;95405.44;;;7.89;100.00
60433;BME280;46286;48.098;11.590;2022-12-24T07:59:44;95422.25;;;7.98;100.00
60433;BME280;46286;48.098;11.590;2022-12-24T08:02:10;95415.91;;;7.94;100.00
60433;BME280;46286;48.098;11.590;2022-12-24T08:04:36;95426.13;;;7.90;100.00
60433;BME280;46286;48.098;11.590;2022-12-24T08:07:03;95426.69;;;7.97;100.00
60433;BME280;46286;48.098;11.590;2022-12-24T08:09:31;95429.56;;;7.96;100.00
60433;BME280;46286;48.098;11.590;2022-12-24T08:11:56;95432.16;;;7.91;100.00
60433;BME280;46286;48.098;11.590;2022-12-24T08:14:22;95447.88;;;7.91;100.00
60433;BME280;46286;48.098;11.590;2022-12-24T08:16:48;95436.88;;;7.94;100.00
60433;BME280;46286;48.098;11.590;2022-12-24T08:19:13;95453.13;;;7.91;100.00
60433;BME280;46286;48.098;11.590;2022-12-24T08:21:39;95455.22;;;7.94;100.00
60433;BME280;46286;48.098;11.590;2022-12-24T08:24:05;95461.50;;;7.93;100.00
60433;BME280;46286;48.098;11.590;2022-12-24T08:26:30;95468.84;;;7.91;100.00
60433;BME280;46286;48.098;11.590;2022-12-24T08:28:56;95472.50;;;7.90;100.00
60433;BME280;46286;48.098;11.590;2022-12-24T08:31:22;95462.53;;;7.87;100.00
60433;BME280;46286;48.098;11.590;2022-12-24T08:33:47;95465.13;;;7.87;100.00
60433;BME280;46286;48.098;11.590;2022-12-24T08:36:13;95471.75;;;7.94;100.00
60433;BME280;46286;48.098;11.590;2022-12-24T08:38:38;95461.44;;;7.83;100.00
60433;BME280;46286;48.098;11.590;2022-12-24T08:41:04;95453.13;;;7.91;100.00
60433;BME280;46286;48.098;11.590;2022-12-24T08:43:30;95464.69;;;7.95;100.00
60433;BME280;46286;48.098;11.590;2022-12-24T08:46:00;95469.41;;;7.98;100.00
60433;BME280;46286;48.098;11.590;2022-12-24T08:48:26;95468.84;;;7.91;100.00
60433;BME280;46286;48.098;11.590;2022-12-24T08:50:52;95473.31;;;7.90;100.00
60433;BME280;46286;48.098;11.590;2022-12-24T08:53:17;95483.28;;;7.93;100.00
60433;BME280;46286;48.098;11.590;2022-12-24T08:55:43;95481.41;;;7.89;100.00
60433;BME280;46286;48.098;11.590;2022-12-24T08:58:08;95485.09;;;7.93;100.00
60433;BME280;46286;48.098;11.590;2022-12-24T09:00:34;95480.91;;;7.92;100.00
60433;BME280;46286;48.098;11.590;2022-12-24T09:02:59;95494.53;;;7.94;100.00
60433;BME280;46286;48.098;11.590;2022-12-24T09:05:25;95498.75;;;8.00;100.00
60433;BME280;46286;48.098;11.590;2022-12-24T09:07:50;95505.59;;;8.01;100.00
60433;BME280;46286;48.098;11.590;2022-12-24T09:10:16;95511.91;;;8.05;100.00
60433;BME280;46286;48.098;11.590;2022-12-24T09:12:41;95511.63;;;8.02;100.00
60433;BME280;46286;48.098;11.590;2022-12-24T09:15:07;95515.06;;;8.07;100.00
60433;BME280;46286;48.098;11.590;2022-12-24T09:17:34;95516.38;;;8.05;100.00
60433;BME280;46286;48.098;11.590;2022-12-24T09:20:00;95527.13;;;8.08;100.00
60433;BME280;46286;48.098;11.590;2022-12-24T09:22:25;95530.28;;;8.10;100.00
60433;BME280;46286;48.098;11.590;2022-12-24T09:24:54;95535.03;;;8.13;100.00
60433;BME280;46286;48.098;11.590;2022-12-24T09:27:20;95529.53;;;8.20;100.00
60433;BME280;46286;48.098;11.590;2022-12-24T09:29:45;95539.56;;;8.23;100.00
60433;BME280;46286;48.098;11.590;2022-12-24T09:32:11;95534.00;;;8.20;100.00
60433;BME280;46286;48.098;11.590;2022-12-24T09:34:37;95527.19;;;8.19;100.00
60433;BME280;46286;48.098;11.590;2022-12-24T09:37:02;95534.53;;;8.17;100.00
60433;BME280;46286;48.098;11.590;2022-12-24T09:39:28;95534.25;;;8.18;100.00
60433;BME280;46286;48.098;11.590;2022-12-24T09:42:16;95532.72;;;8.22;100.00
60433;BME280;46286;48.098;11.590;2022-12-24T09:44:58;95540.84;;;8.21;100.00
60433;BME280;46286;48.098;11.590;2022-12-24T09:47:28;95530.34;;;8.21;100.00
60433;BME280;46286;48.098;11.590;2022-12-24T09:50:00;95540.84;;;8.21;100.00
60433;BME280;46286;48.098;11.590;2022-12-24T09:52:39;95532.41;;;8.19;100.00
60433;BME280;46286;48.098;11.590;2022-12-24T09:55:19;95535.09;;;8.24;100.00
60433;BME280;46286;48.098;11.590;2022-12-24T09:57:49;95541.91;;;8.25;100.00
60433;BME280;46286;48.098;11.590;2022-12-24T10:00:22;95535.59;;;8.21;100.00
60433;BME280;46286;48.098;11.590;2022-12-24T10:02:50;95534.56;;;8.27;100.00
60433;BME280;46286;48.098;11.590;2022-12-24T10:05:17;95532.50;;;8.29;100.00
60433;BME280;46286;48.098;11.590;2022-12-24T10:08:02;95526.97;;;8.25;100.00
60433;BME280;46286;48.098;11.590;2022-12-24T10:10:39;95524.59;;;8.24;100.00
60433;BME280;46286;48.098;11.590;2022-12-24T10:16:00;95532.78;;;8.32;100.00
60433;BME280;46286;48.098;11.590;2022-12-24T10:18:47;95529.38;;;8.37;100.00
60433;BME280;46286;48.098;11.590;2022-12-24T10:21:25;95527.56;;;8.43;100.00
60433;BME280;46286;48.098;11.590;2022-12-24T10:24:05;95528.47;;;8.54;100.00
60433;BME280;46286;48.098;11.590;2022-12-24T10:26:36;95530.09;;;8.65;100.00
60433;BME280;46286;48.098;11.590;2022-12-24T10:29:15;95536.34;;;8.59;100.00
60433;BME280;46286;48.098;11.590;2022-12-24T10:34:42;95542.63;;;8.53;100.00
60433;BME280;46286;48.098;11.590;2022-12-24T10:37:15;95540.00;;;8.53;100.00
60433;BME280;46286;48.098;11.590;2022-12-24T10:39:41;95540.03;;;8.58;100.00
60433;BME280;46286;48.098;11.590;2022-12-24T10:42:07;95542.09;;;8.56;100.00
60433;BME280;46286;48.098;11.590;2022-12-24T10:44:33;95532.16;;;8.63;100.00
60433;BME280;46286;48.098;11.590;2022-12-24T10:46:59;95522.19;;;8.60;100.00
60433;BME280;46286;48.098;11.590;2022-12-24T10:49:46;95520.06;;;8.57;100.00
60433;BME280;46286;48.098;11.590;2022-12-24T10:52:16;95532.41;;;8.61;100.00
60433;BME280;46286;48.098;11.590;2022-12-24T10:57:58;95524.25;;;8.53;100.00
60433;BME280;46286;48.098;11.590;2022-12-24T11:00:25;95526.91;;;8.63;100.00
60433;BME280;46286;48.098;11.590;2022-12-24T11:05:44;95538.06;;;8.91;100.00
60433;BME280;46286;48.098;11.590;2022-12-24T11:08:16;95530.72;;;8.93;100.00
60433;BME280;46286;48.098;11.590;2022-12-24T11:10:44;95536.50;;;9.00;100.00
60433;BME280;46286;48.098;11.590;2022-12-24T11:13:29;95532.38;;;9.35;100.00
60433;BME280;46286;48.098;11.590;2022-12-24T11:16:24;95529.16;;;10.56;100.00
60433;BME280;46286;48.098;11.590;2022-12-24T11:18:53;95534.06;;;12.08;93.69
60433;BME280;46286;48.098;11.590;2022-12-24T11:21:24;95537.22;;;12.10;95.64
60433;BME280;46286;48.098;11.590;2022-12-24T11:23:56;95531.50;;;12.99;89.47
60433;BME280;46286;48.098;11.590;2022-12-24T11:26:23;95524.97;;;13.54;80.56
60433;BME280;46286;48.098;11.590;2022-12-24T11:29:10;95529.78;;;11.43;89.23
60433;BME280;46286;48.098;11.590;2022-12-24T11:31:37;95530.69;;;12.32;85.47
60433;BME280;46286;48.098;11.590;2022-12-24T11:34:22;95520.50;;;12.20;85.25
60433;BME280;46286;48.098;11.590;2022-12-24T11:36:50;95515.19;;;11.95;85.53
60433;BME280;46286;48.098;11.590;2022-12-24T11:39:21;95522.53;;;11.24;93.08
60433;BME280;46286;48.098;11.590;2022-12-24T11:41:48;95522.75;;;10.73;100.00
60433;BME280;46286;48.098;11.590;2022-12-24T11:44:23;95526.06;;;10.39;100.00
60433;BME280;46286;48.098;11.590;2022-12-24T11:46:49;95513.94;;;10.22;100.00
60433;BME280;46286;48.098;11.590;2022-12-24T11:49:27;95516.09;;;10.10;100.00
60433;BME280;46286;48.098;11.590;2022-12-24T11:52:18;95524.00;;;9.84;100.00
60433;BME280;46286;48.098;11.590;2022-12-24T11:55:13;95524.53;;;9.81;100.00
60433;BME280;46286;48.098;11.590;2022-12-24T11:57:47;95527.69;;;9.73;100.00
60433;BME280;46286;48.098;11.590;2022-12-24T12:00:15;95533.47;;;9.70;100.00
60433;BME280;46286;48.098;11.590;2022-12-24T12:02:42;95525.03;;;9.68;100.00
60433;BME280;46286;48.098;11.590;2022-12-24T12:05:20;95520.03;;;9.51;100.00
60433;BME280;46286;48.098;11.590;2022-12-24T12:07:54;95524.50;;;9.40;100.00
60433;BME280;46286;48.098;11.590;2022-12-24T12:10:31;95527.09;;;9.25;100.00
60433;BME280;46286;48.098;11.590;2022-12-24T12:13:12;95529.72;;;9.19;100.00
60433;BME280;46286;48.098;11.590;2022-12-24T12:15:44;95516.59;;;9.25;100.00
60433;BME280;46286;48.098;11.590;2022-12-24T12:18:15;95519.22;;;9.19;100.00
60433;BME280;46286;48.098;11.590;2022-12-24T12:20:46;95526.03;;;9.21;100.00
60433;BME280;46286;48.098;11.590;2022-12-24T12:23:19;95522.38;;;9.22;100.00
60433;BME280;46286;48.098;11.590;2022-12-24T12:28:41;95519.22;;;9.14;100.00
60433;BME280;46286;48.098;11.590;2022-12-24T12:31:25;95516.56;;;9.04;100.00
60433;BME280;46286;48.098;11.590;2022-12-24T12:33:56;95528.66;;;9.21;100.00
60433;BME280;46286;48.098;11.590;2022-12-24T12:36:32;95526.31;;;9.24;100.00
60433;BME280;46286;48.098;11.590;2022-12-24T12:38:59;95524.97;;;9.16;100.00
60433;BME280;46286;48.098;11.590;2022-12-24T12:41:39;95531.56;;;9.24;100.00
60433;BME280;46286;48.098;11.590;2022-12-24T12:47:34;95536.56;;;9.31;100.00
60433;BME280;46286;48.098;11.590;2022-12-24T13:01:26;95546.03;;;9.32;100.00
60433;BME280;46286;48.098;11.590;2022-12-24T13:04:01;95556.53;;;9.27;100.00
60433;BME280;46286;48.098;11.590;2022-12-24T13:09:34;95553.88;;;9.22;100.00
60433;BME280;46286;48.098;11.590;2022-12-24T13:12:30;95550.72;;;9.14;100.00
60433;BME280;46286;48.098;11.590;2022-12-24T13:15:10;95552.50;;;8.98;100.00
60433;BME280;46286;48.098;11.590;2022-12-24T13:17:47;95554.09;;;8.99;100.00
60433;BME280;46286;48.098;11.590;2022-12-24T13:25:25;95548.00;;;8.89;100.00
60433;BME280;46286;48.098;11.590;2022-12-24T13:27:51;95557.00;;;9.13;100.00
60433;BME280;46286;48.098;11.590;2022-12-24T13:30:50;95560.66;;;9.02;100.00
60433;BME280;46286;48.098;11.590;2022-12-24T13:36:05;95569.25;;;8.87;100.00
60433;BME280;46286;48.098;11.590;2022-12-24T13:46:48;95575.22;;;8.67;100.00
60433;BME280;46286;48.098;11.590;2022-12-24T13:49:20;95579.16;;;8.70;100.00
60433;BME280;46286;48.098;11.590;2022-12-24T13:51:50;95573.09;;;8.69;100.00
60433;BME280;46286;48.098;11.590;2022-12-24T13:54:18;95578.59;;;8.67;100.00
60433;BME280;46286;48.098;11.590;2022-12-24T13:56:49;95579.44;;;8.73;100.00
60433;BME280;46286;48.098;11.590;2022-12-24T13:59:36;95583.13;;;8.72;100.00
60433;BME280;46286;48.098;11.590;2022-12-24T14:02:04;95585.19;;;8.70;100.00
60433;BME280;46286;48.098;11.590;2022-12-24T14:04:36;95592.03;;;8.71;100.00